Weather Underground® Station Historical Data


Station Historical Data For Bruceton, TN. (K3JAE's Weather Station - KTNBRUCE2)
 
Daily Summary for:  February 23, 2018 Units:  English    Metric   Both
« Previous Day
Next Day »
Daily Weekly Monthly Yearly Custom
  Current: High: Low: Average:
Temperature: 61.1 °F 63.1 °F 56.0 °F 59.8 °F
Dew Point: 55.9 °F 59.0 °F 51.6 °F 55.1 °F
Humidity: 83% 88% 83% 85%
Wind Speed: 1.2mph 11.5mph 0.0mph 2.9mph
Wind Gust: 1.2mph 11.5mph - -
WindSSE - - SSW
Pressure: 30.27 in 30.29 in 30.23 in -
Precipitation: 0.27 in      
Historical Graphs
 
 
Tabular Data for:  February 23, 2018
Time Temperature Dew Point Pressure Wind Wind Speed Wind Gust Humidity Rainfall Rate (Hourly) solar Conditions
00:03 56.0 °F 51.6 °F 30.24 in SSW 1.2 mph 1.2 mph 85% 0.00 in 0.0 W/m2 RA
00:08 56.0 °F 51.6 °F 30.23 in SSW 2.3 mph 2.3 mph 85% 0.00 in 0.0 W/m2 OVC
00:13 56.1 °F 51.7 °F 30.23 in Calm     85% 0.00 in 0.0 W/m2 OVC
00:18 56.3 °F 51.8 °F 30.23 in Calm     85% 0.00 in 0.0 W/m2 OVC
00:23 56.5 °F 52.0 °F 30.23 in SSW 1.2 mph   85% 0.00 in 0.0 W/m2 OVC
00:28 56.5 °F 52.0 °F 30.23 in Calm     85% 0.00 in 0.0 W/m2 OVC
00:33 56.7 °F 52.2 °F 30.24 in SSW 2.3 mph 2.3 mph 85% 0.00 in 0.0 W/m2 OVC
00:38 57.1 °F 52.6 °F 30.24 in SSW 3.0 mph 3.0 mph 85% 0.00 in 0.0 W/m2 OVC
00:43 57.0 °F 52.5 °F 30.25 in SSW 3.5 mph 3.5 mph 85% 0.00 in 0.0 W/m2 OVC
00:48 56.8 °F 52.3 °F 30.25 in SSW 3.5 mph 3.5 mph 85% 0.00 in 0.0 W/m2 OVC
00:53 56.8 °F 52.3 °F 30.25 in Calm     85% 0.00 in 0.0 W/m2 OVC
00:58 56.9 °F 52.4 °F 30.26 in SSW 3.5 mph 3.5 mph 85% 0.00 in 0.0 W/m2 OVC
01:03 57.0 °F 52.5 °F 30.26 in SSW 1.2 mph 1.2 mph 85% 0.00 in 0.0 W/m2 BKN
01:08 57.1 °F 52.6 °F 30.26 in SSW 1.2 mph 1.2 mph 85% 0.00 in 0.0 W/m2 BKN
01:13 57.1 °F 52.6 °F 30.25 in Calm     85% 0.00 in 0.0 W/m2 BKN
01:18 57.0 °F 52.5 °F 30.25 in Calm     85% 0.00 in 0.0 W/m2 BKN
01:23 57.0 °F 52.5 °F 30.25 in Calm     85% 0.00 in 0.0 W/m2 BKN
01:28 57.0 °F 52.5 °F 30.25 in Calm     85% 0.00 in 0.0 W/m2 BKN
01:33 56.9 °F 52.4 °F 30.24 in Calm     85% 0.00 in 0.0 W/m2 BKN
01:38 56.7 °F 52.2 °F 30.25 in Calm     85% 0.00 in 0.0 W/m2 BKN
01:43 56.8 °F 52.3 °F 30.25 in SSW 2.3 mph 2.3 mph 85% 0.00 in 0.0 W/m2 BKN
01:48 57.5 °F 53.0 °F 30.25 in SSW 2.3 mph 2.3 mph 85% 0.00 in 0.0 W/m2 BKN
01:53 58.1 °F 53.6 °F 30.25 in SSW 3.0 mph 3.0 mph 85% 0.00 in 0.0 W/m2 BKN
01:58 59.1 °F 54.6 °F 30.25 in SW 7.0 mph 7.0 mph 85% 0.00 in 0.0 W/m2 BKN
02:03 60.2 °F 55.7 °F 30.25 in SSW 5.8 mph 5.8 mph 85% 0.00 in 0.0 W/m2 OVC
02:08 61.0 °F 56.5 °F 30.25 in SSW 6.9 mph 6.9 mph 85% 0.00 in 0.0 W/m2 OVC
02:13 61.7 °F 57.1 °F 30.25 in SW 8.1 mph 8.1 mph 85% 0.00 in 0.0 W/m2 OVC
02:18 62.6 °F 57.7 °F 30.26 in SSW 8.1 mph 8.1 mph 84% 0.00 in 0.0 W/m2 OVC
02:23 63.1 °F 57.9 °F 30.25 in SW 10.4 mph 10.4 mph 83% 0.00 in 0.0 W/m2 OVC
02:28 63.1 °F 58.5 °F 30.27 in WNW 9.2 mph 9.2 mph 85% 0.00 in 0.0 W/m2 OVC
02:33 62.9 °F 59.0 °F 30.27 in West 6.0 mph 6.0 mph 87% 0.00 in 0.0 W/m2 OVC
02:38 62.5 °F 58.9 °F 30.27 in West 9.2 mph 9.2 mph 88% 0.00 in 0.0 W/m2 OVC
02:43 61.9 °F 58.3 °F 30.28 in West 9.2 mph 9.2 mph 88% 0.00 in 0.0 W/m2 OVC
02:48 61.6 °F 58.0 °F 30.28 in West 6.0 mph 6.0 mph 88% 0.00 in 0.0 W/m2 OVC
02:53 61.4 °F 57.5 °F 30.28 in West 10.4 mph 10.4 mph 87% 0.00 in 0.0 W/m2 OVC
02:58 61.8 °F 57.9 °F 30.29 in West 6.9 mph 6.9 mph 87% 0.00 in 0.0 W/m2 OVC
03:03 62.2 °F 58.3 °F 30.29 in West 11.5 mph 11.5 mph 87% 0.00 in 0.0 W/m2 OVC
03:08 62.1 °F 58.2 °F 30.28 in WNW 11.5 mph 11.5 mph 87% 0.07 in 0.0 W/m2 RA
03:13 61.8 °F 57.9 °F 30.28 in WSW 11.5 mph 11.5 mph 87% 0.08 in 0.0 W/m2 RA
03:18 61.7 °F 57.8 °F 30.28 in WSW 3.5 mph 3.5 mph 87% 0.10 in 0.0 W/m2 RA
03:23 61.5 °F 57.3 °F 30.27 in West 3.5 mph 3.5 mph 86% 0.14 in 0.0 W/m2 RA
03:28 61.2 °F 57.0 °F 30.26 in SSW 3.5 mph 3.5 mph 86% 0.21 in 0.0 W/m2 RA
03:33 61.1 °F 56.6 °F 30.27 in SSW 3.5 mph 3.5 mph 85% 0.22 in 0.0 W/m2 RA
03:38 61.0 °F 56.5 °F 30.27 in Calm     85% 0.25 in 0.0 W/m2 RA
03:43 60.8 °F 56.3 °F 30.25 in Calm     85% 0.26 in 0.0 W/m2 RA
03:48 60.6 °F 56.1 °F 30.25 in Calm   0.4 mph 85% 0.27 in 0.0 W/m2 RA
03:53 60.4 °F 55.9 °F 30.24 in SSW 1.2 mph   85% 0.27 in 0.0 W/m2 OVC
03:58 60.3 °F 55.8 °F 30.24 in Calm     85% 0.27 in 0.0 W/m2 OVC
04:03 60.3 °F 55.4 °F 30.25 in SSW 1.0 mph 1.0 mph 84% 0.27 in 0.0 W/m2 OVC
04:08 60.5 °F 55.6 °F 30.25 in SSW 1.2 mph 1.2 mph 84% 0.20 in 0.0 W/m2 OVC
04:14 60.4 °F 55.5 °F 30.25 in Calm     84% 0.19 in 0.0 W/m2 OVC
04:19 60.3 °F 55.4 °F 30.25 in SSW 1.0 mph 1.0 mph 84% 0.17 in 0.0 W/m2 OVC
04:24 60.3 °F 55.4 °F 30.24 in SSW 1.2 mph 1.2 mph 84% 0.13 in 0.0 W/m2 OVC
04:29 60.3 °F 55.4 °F 30.24 in SSW 2.3 mph 2.3 mph 84% 0.06 in 0.0 W/m2 OVC
04:34 60.4 °F 55.2 °F 30.24 in SSW 2.0 mph 2.0 mph 83% 0.05 in 0.0 W/m2 OVC
04:39 60.4 °F 55.2 °F 30.24 in Calm     83% 0.02 in 0.0 W/m2 OVC
04:44 60.4 °F 55.2 °F 30.24 in Calm     83% 0.01 in 0.0 W/m2 OVC
04:49 60.5 °F 55.3 °F 30.24 in SSW 2.3 mph 2.3 mph 83% 0.00 in 0.0 W/m2 OVC
04:54 60.5 °F 55.3 °F 30.24 in SSW 3.5 mph 3.5 mph 83% 0.00 in 0.0 W/m2 OVC
04:59 60.5 °F 55.3 °F 30.24 in SSW 2.3 mph 2.3 mph 83% 0.00 in 0.0 W/m2 OVC
05:04 60.5 °F 55.3 °F 30.24 in SSW 1.2 mph 1.2 mph 83% 0.00 in 0.0 W/m2 OVC
05:09 60.4 °F 55.2 °F 30.24 in SSW 1.2 mph 1.2 mph 83% 0.00 in 0.0 W/m2 OVC
05:14 60.4 °F 55.2 °F 30.24 in Calm     83% 0.00 in 0.0 W/m2 OVC
05:19 60.4 °F 55.2 °F 30.24 in South 3.0 mph 3.0 mph 83% 0.00 in 0.0 W/m2 OVC
05:24 60.5 °F 55.3 °F 30.25 in South 1.2 mph 1.2 mph 83% 0.00 in 0.0 W/m2 OVC
05:29 60.5 °F 55.3 °F 30.24 in South 1.2 mph 1.2 mph 83% 0.00 in 0.0 W/m2 OVC
05:34 60.4 °F 55.2 °F 30.25 in Calm     83% 0.00 in 0.0 W/m2 OVC
05:39 60.5 °F 55.3 °F 30.25 in Calm     83% 0.00 in 0.0 W/m2 OVC
05:44 60.5 °F 55.3 °F 30.25 in South 3.5 mph 3.5 mph 83% 0.00 in 0.0 W/m2 OVC
05:49 60.6 °F 55.4 °F 30.25 in South 1.2 mph 1.2 mph 83% 0.00 in 0.0 W/m2 OVC
05:54 60.5 °F 55.3 °F 30.25 in South 2.3 mph 2.3 mph 83% 0.00 in 0.0 W/m2 OVC
05:59 60.5 °F 55.3 °F 30.25 in South 1.2 mph 1.2 mph 83% 0.00 in 0.0 W/m2 OVC
06:04 60.6 °F 55.4 °F 30.25 in South 1.2 mph 1.2 mph 83% 0.00 in 0.0 W/m2 BKN
06:09 60.6 °F 55.4 °F 30.25 in South 1.2 mph 1.2 mph 83% 0.00 in 0.0 W/m2 BKN
06:14 60.7 °F 55.5 °F 30.26 in South 3.5 mph 3.5 mph 83% 0.00 in 0.0 W/m2 BKN
06:19 60.8 °F 55.6 °F 30.26 in South 2.3 mph 2.3 mph 83% 0.00 in 0.0 W/m2 BKN
06:24 60.9 °F 55.7 °F 30.26 in ESE 3.5 mph 3.5 mph 83% 0.00 in 0.0 W/m2 BKN
06:29 61.0 °F 55.8 °F 30.26 in South 5.0 mph 5.0 mph 83% 0.00 in 9.0 W/m2 BKN
06:34 61.1 °F 55.9 °F 30.26 in South 2.3 mph 2.3 mph 83% 0.00 in 14.0 W/m2 BKN
06:39 61.1 °F 55.9 °F 30.27 in South 1.2 mph 1.2 mph 83% 0.00 in 12.0 W/m2 BKN
06:44 61.1 °F 55.9 °F 30.27 in SSE 1.2 mph 1.2 mph 83% 0.00 in 12.0 W/m2 BKN
Bruceton, TN. NWS Weather Forecast
Compliments of:  Weather Underground - 4 mb

Interesting Weather Facts
COLDEST DAY EVER
Vostok Station, Antarctica recorded the coldest temperature on record for one day, throughout the world at -126.8°F (-89.2 °C) on 21 July 1983.